Kalach-na-Donu, Russia
Current Conditions -  °F | °C
As of 12:00 AM on Wednesday 26 Nov 2014 (Local Time) from URWW Reporting Station
Clear Clear  
Wind Chill: -2°   Ceiling: Unl
Heat Index: 10°   Visibility: 6mi
Dew Point:   Wind: 9mph
Humidity: 62%   Direction: 90°E
Pressure: 30.59"   Gusts: NA
Location:  48.71°N, 43.5°E
Report Text: URWW 252100Z 09004MPS CAVOK M12/M18 Q1036 NOSIG RMK 11CLRD70
Loading
Personal Weather Stations






























Interactive Weather Map New forecast layout! Learn more

10-Day Weather Forecast

Advertisements
Track Severe Weather on mobile